Login to view products.
 
Sunday, May 19, 2019 (11:32 UTC)
Al Bateen Executive Airport
ICAO: OMAD
IATA: AZI
  • SPECI OMAD 191104Z 11017KT 2500 BLDU NSC 36/15 Q1005 BECMG 4000=
  • TAF OMAD 191100Z 1912/2018 36010KT 8000 NSC PROB30 TEMPO 1912/1916 VRB20G35KT 3000 TSRA BLDU FEW045CB BECMG 1913/1915 06008KT BECMG 1922/2000 15010KT BECMG 2008/2010 33012KT PROB30 TEMPO 2011/2015 VRB20G35KT 3000 TSRA BLDU FEW045CB=
D:\Input Parser\Destinations\Final\11\OMADL12181100703890503.txt
1